Time;durP1;ratioP1;P1;durP2;ratioP2;P2;SDS_P1;SDS_P2;PMS_P1;PMS_P2;Temp;Humidity;BMP_temperature;BMP_pressure;BME280_temperature;BME280_humidity;BME280_pressure;Samples;Min_cycle;Max_cycle;Signal;HPM_P1;HPM_P2
2022/07/25 00:00:54;;;;;;;5.53;4.60;;;21.70;83.50;;;;;;1846855;78;21450;-71
2022/07/25 00:03:23;;;;;;;6.42;4.92;;;21.70;83.50;;;;;;1846847;78;21066;-71
2022/07/25 00:05:52;;;;;;;6.90;5.33;;;21.80;83.50;;;;;;1846862;78;21067;-71
2022/07/25 00:08:21;;;;;;;4.78;4.10;;;21.80;83.30;;;;;;1846905;78;21479;-71
2022/07/25 00:10:50;;;;;;;4.92;4.50;;;21.80;83.20;;;;;;1846884;78;21055;-71
2022/07/25 00:13:19;;;;;;;6.20;4.85;;;21.90;82.90;;;;;;1846854;78;20993;-71
2022/07/25 00:15:48;;;;;;;5.35;4.47;;;21.80;82.50;;;;;;1846886;78;21482;-71
2022/07/25 00:18:17;;;;;;;4.47;4.08;;;21.70;82.50;;;;;;1846802;78;20980;-71
2022/07/25 00:20:47;;;;;;;4.87;4.47;;;21.60;82.70;;;;;;1846853;78;21004;-71
2022/07/25 00:23:16;;;;;;;7.45;5.30;;;21.60;83.00;;;;;;1846792;78;21028;-71
2022/07/25 00:25:45;;;;;;;5.72;4.78;;;21.60;82.80;;;;;;1846940;78;21004;-71
2022/07/25 00:28:14;;;;;;;4.83;4.42;;;21.50;82.90;;;;;;1846818;78;21064;-71
2022/07/25 00:30:43;;;;;;;7.05;4.47;;;21.40;83.20;;;;;;1846784;78;20993;-71
2022/07/25 00:33:12;;;;;;;5.60;5.10;;;21.40;83.20;;;;;;1846894;78;21012;-71
2022/07/25 00:35:41;;;;;;;5.17;4.72;;;21.40;83.30;;;;;;1846858;78;21016;-71
2022/07/25 00:38:10;;;;;;;6.60;5.08;;;21.30;83.30;;;;;;1846850;78;21078;-71
2022/07/25 00:40:39;;;;;;;5.25;4.67;;;21.30;83.70;;;;;;1846819;78;21521;-71
2022/07/25 00:43:08;;;;;;;4.95;4.47;;;21.30;83.70;;;;;;1846849;78;21036;-71
2022/07/25 00:45:37;;;;;;;4.55;4.15;;;21.30;83.90;;;;;;1846854;78;21016;-71
2022/07/25 00:48:07;;;;;;;5.25;4.75;;;21.30;83.90;;;;;;1846778;78;21580;-71
2022/07/25 00:50:36;;;;;;;4.87;4.37;;;21.40;83.90;;;;;;1847787;76;21050;-71
2022/07/25 00:53:05;;;;;;;4.30;3.92;;;21.40;83.50;;;;;;1849824;77;20992;-71
2022/07/25 00:55:34;;;;;;;5.17;4.30;;;21.50;83.50;;;;;;1849787;77;21056;-71
2022/07/25 00:58:03;;;;;;;5.47;4.37;;;21.50;83.30;;;;;;1849779;77;21016;-71
2022/07/25 01:00:32;;;;;;;5.85;4.58;;;21.50;83.10;;;;;;1849734;77;21016;-71
2022/07/25 01:03:01;;;;;;;4.90;4.45;;;21.50;82.80;;;;;;1849754;77;21017;-71
2022/07/25 01:05:30;;;;;;;5.72;4.58;;;21.50;82.40;;;;;;1849868;77;21023;-71
2022/07/25 01:07:59;;;;;;;5.97;4.72;;;21.40;82.10;;;;;;1849906;77;21083;-71
2022/07/25 01:10:31;;;;;;;4.28;3.92;;;21.30;82.30;;;;;;1849767;77;21067;-71
2022/07/25 01:13:00;;;;;;;4.60;4.20;;;21.30;82.30;;;;;;1849811;77;20988;-71
2022/07/25 01:15:29;;;;;;;6.17;4.87;;;21.20;82.70;;;;;;1849796;77;20997;-71
2022/07/25 01:17:58;;;;;;;4.65;4.25;;;21.20;82.70;;;;;;1849790;77;21470;-71
2022/07/25 01:20:29;;;;;;;5.00;4.55;;;21.20;82.70;;;;;;1849758;77;21070;-71
2022/07/25 01:22:59;;;;;;;4.72;4.28;;;21.20;82.60;;;;;;1849776;77;21008;-71
2022/07/25 01:25:29;;;;;;;4.47;3.70;;;21.20;82.70;;;;;;1849780;77;21516;-71
2022/07/25 01:27:58;;;;;;;4.28;3.87;;;21.20;82.80;;;;;;1849861;77;21098;-71
2022/07/25 01:30:26;;;;;;;5.03;4.28;;;21.20;83.10;;;;;;1849791;77;21001;-71
2022/07/25 01:32:55;;;;;;;6.80;4.30;;;21.20;83.20;;;;;;1849850;77;21082;-71
2022/07/25 01:35:24;;;;;;;4.75;4.35;;;21.30;83.00;;;;;;1849790;77;21024;-71
2022/07/25 01:37:53;;;;;;;4.60;4.20;;;21.30;83.10;;;;;;1849739;77;21075;-71
2022/07/25 01:40:22;;;;;;;4.60;4.10;;;21.30;83.10;;;;;;1849900;77;21016;-71
2022/07/25 01:42:51;;;;;;;6.03;4.58;;;21.40;83.30;;;;;;1849698;77;21434;-71
2022/07/25 01:45:20;;;;;;;6.67;4.20;;;21.30;82.90;;;;;;1849763;77;21071;-71
2022/07/25 01:47:49;;;;;;;6.17;4.22;;;21.30;82.90;;;;;;1849741;77;20985;-71
2022/07/25 01:50:18;;;;;;;5.10;4.47;;;21.20;83.20;;;;;;1849768;77;21461;-71
2022/07/25 01:52:47;;;;;;;5.70;4.47;;;21.10;83.20;;;;;;1838283;77;21056;-71
2022/07/25 01:55:16;;;;;;;5.08;4.33;;;21.10;83.60;;;;;;1838365;78;21043;-71
2022/07/25 01:57:45;;;;;;;6.28;4.60;;;21.10;83.80;;;;;;1838325;78;21554;-71
2022/07/25 02:00:16;;;;;;;5.90;4.67;;;21.10;84.00;;;;;;1838342;78;21517;-72
2022/07/25 02:02:45;;;;;;;5.05;4.50;;;21.10;84.10;;;;;;1838404;78;21017;-72
2022/07/25 02:05:15;;;;;;;5.05;4.53;;;21.10;84.30;;;;;;1838402;78;21001;-71
2022/07/25 02:07:44;;;;;;;4.62;4.22;;;21.10;84.50;;;;;;1838495;78;21005;-72
2022/07/25 02:10:13;;;;;;;5.50;4.50;;;21.10;84.40;;;;;;1838416;78;21067;-72
2022/07/25 02:12:42;;;;;;;4.92;3.87;;;21.20;84.60;;;;;;1838451;78;20975;-72
2022/07/25 02:15:11;;;;;;;6.53;4.60;;;21.20;84.60;;;;;;1838409;78;21032;-72
2022/07/25 02:17:40;;;;;;;5.58;4.75;;;21.30;84.50;;;;;;1838490;78;20981;-72
2022/07/25 02:20:10;;;;;;;4.50;4.10;;;21.40;84.30;;;;;;1838466;78;20950;-72
2022/07/25 02:22:39;;;;;;;4.37;4.03;;;21.40;84.20;;;;;;1838451;78;21079;-72
2022/07/25 02:25:08;;;;;;;4.70;4.20;;;21.40;84.40;;;;;;1838493;78;20985;-71
2022/07/25 02:27:37;;;;;;;5.30;4.50;;;21.50;84.40;;;;;;1838398;78;21047;-72
2022/07/25 02:30:07;;;;;;;4.65;4.20;;;21.50;84.30;;;;;;1838353;78;21051;-72
2022/07/25 02:32:36;;;;;;;4.55;4.15;;;21.50;84.30;;;;;;1838481;78;21062;-72
2022/07/25 02:35:07;;;;;;;5.78;4.30;;;21.60;84.30;;;;;;1838483;78;21474;-72
2022/07/25 02:37:36;;;;;;;4.85;3.92;;;21.60;84.20;;;;;;1838373;78;20993;-72
2022/07/25 02:40:06;;;;;;;4.42;4.03;;;21.60;84.00;;;;;;1838507;78;21060;-71
2022/07/25 02:42:35;;;;;;;5.65;3.87;;;21.60;83.90;;;;;;1838367;78;20981;-72
2022/07/25 02:45:04;;;;;;;4.55;4.15;;;21.70;83.70;;;;;;1838464;78;21052;-72
2022/07/25 02:47:33;;;;;;;4.72;4.33;;;21.80;83.60;;;;;;1838499;78;21036;-72
2022/07/25 02:50:03;;;;;;;5.28;4.05;;;21.90;83.30;;;;;;1838364;78;20949;-72
2022/07/25 02:52:32;;;;;;;4.50;4.10;;;22.00;82.70;;;;;;1843462;77;21510;-71
2022/07/25 02:55:01;;;;;;;4.60;3.72;;;22.00;82.20;;;;;;1846837;78;21490;-72
2022/07/25 02:57:30;;;;;;;6.22;4.17;;;22.00;82.10;;;;;;1846788;78;21086;-72
2022/07/25 02:59:59;;;;;;;4.28;3.92;;;21.90;82.30;;;;;;1846854;78;20989;-72
2022/07/25 03:02:28;;;;;;;16.93;5.60;;;21.90;82.50;;;;;;1846912;78;21099;-72
2022/07/25 03:04:57;;;;;;;5.28;4.10;;;21.90;82.80;;;;;;1846860;78;21063;-72
2022/07/25 03:07:26;;;;;;;4.37;3.67;;;22.00;82.70;;;;;;1846882;78;21489;-71
2022/07/25 03:09:55;;;;;;;4.45;4.05;;;22.00;82.80;;;;;;1846854;78;21103;-72
2022/07/25 03:12:24;;;;;;;5.45;4.95;;;22.00;82.90;;;;;;1846938;78;21024;-72
2022/07/25 03:14:53;;;;;;;5.37;4.05;;;22.10;83.00;;;;;;1846877;78;21552;-72
2022/07/25 03:17:22;;;;;;;6.30;4.67;;;22.10;82.80;;;;;;1846904;78;21008;-72
2022/07/25 03:19:51;;;;;;;5.25;4.35;;;22.10;82.60;;;;;;1846905;78;21020;-71
2022/07/25 03:22:20;;;;;;;4.85;4.35;;;22.10;82.50;;;;;;1846783;78;21471;-72
2022/07/25 03:24:49;;;;;;;4.92;4.45;;;22.10;82.50;;;;;;1846824;78;21023;-72
2022/07/25 03:27:18;;;;;;;5.08;4.08;;;22.20;82.70;;;;;;1846893;78;21036;-72
2022/07/25 03:29:47;;;;;;;4.03;3.67;;;22.20;82.60;;;;;;1846850;78;21443;-72
2022/07/25 03:32:15;;;;;;;4.95;4.00;;;22.30;82.70;;;;;;1846819;78;21110;-72
2022/07/25 03:34:44;;;;;;;5.92;4.62;;;22.50;82.80;;;;;;1846776;78;21000;-72
2022/07/25 03:37:13;;;;;;;4.72;4.28;;;22.60;82.70;;;;;;1846814;78;21056;-72
2022/07/25 03:39:42;;;;;;;4.50;4.10;;;22.70;82.20;;;;;;1846944;78;21482;-71
2022/07/25 03:42:11;;;;;;;6.37;5.00;;;22.70;82.00;;;;;;1846888;78;20989;-72
2022/07/25 03:44:40;;;;;;;4.75;4.28;;;22.80;81.80;;;;;;1846848;78;21028;-71
2022/07/25 03:47:09;;;;;;;4.58;4.15;;;22.90;81.80;;;;;;1846792;78;21123;-72
2022/07/25 03:49:38;;;;;;;4.70;4.30;;;23.00;81.70;;;;;;1846846;78;21017;-72
2022/07/25 03:52:07;;;;;;;4.40;3.87;;;23.10;81.50;;;;;;1846948;78;20996;-72
2022/07/25 03:54:36;;;;;;;5.62;4.10;;;23.20;81.20;;;;;;1846825;77;21080;-72
2022/07/25 03:57:05;;;;;;;4.78;3.90;;;23.30;80.70;;;;;;1846847;78;21556;-72
2022/07/25 03:59:34;;;;;;;4.42;4.03;;;23.40;80.50;;;;;;1846851;78;21552;-72
2022/07/25 04:02:03;;;;;;;6.20;3.70;;;23.50;80.50;;;;;;1846771;78;20972;-72
2022/07/25 04:04:32;;;;;;;4.65;4.25;;;23.60;80.10;;;;;;1846872;78;21087;-72
2022/07/25 04:07:01;;;;;;;6.28;3.77;;;23.70;79.70;;;;;;1846763;78;21500;-72
2022/07/25 04:09:30;;;;;;;8.10;3.33;;;23.80;79.30;;;;;;1846985;78;21052;-71
2022/07/25 04:11:59;;;;;;;4.03;3.62;;;23.80;79.20;;;;;;1846812;78;21000;-71
2022/07/25 04:14:28;;;;;;;3.87;3.25;;;24.00;79.10;;;;;;1846745;78;21020;-71
2022/07/25 04:16:57;;;;;;;5.03;3.85;;;24.10;78.80;;;;;;1846916;78;21017;-71
2022/07/25 04:19:26;;;;;;;5.45;3.75;;;24.20;78.40;;;;;;1846859;78;21021;-72
2022/07/25 04:21:55;;;;;;;4.92;3.22;;;24.30;77.80;;;;;;1846871;78;21012;-72
2022/07/25 04:24:24;;;;;;;4.35;3.22;;;24.30;77.10;;;;;;1846814;78;21016;-72
2022/07/25 04:26:52;;;;;;;4.55;3.65;;;24.40;77.20;;;;;;1846825;78;21434;-71
2022/07/25 04:29:21;;;;;;;8.13;3.75;;;24.50;76.70;;;;;;1846802;78;20985;-70
2022/07/25 04:31:50;;;;;;;7.12;4.33;;;24.60;76.50;;;;;;1846833;78;21020;-71
2022/07/25 04:34:19;;;;;;;4.10;3.55;;;24.70;76.40;;;;;;1846762;78;21536;-71
2022/07/25 04:36:48;;;;;;;5.05;3.67;;;24.80;76.00;;;;;;1846811;78;21557;-71
2022/07/25 04:39:17;;;;;;;6.92;4.08;;;24.80;75.60;;;;;;1846818;78;21016;-71
2022/07/25 04:41:46;;;;;;;3.65;3.35;;;25.00;75.30;;;;;;1846877;78;21118;-70
2022/07/25 04:44:15;;;;;;;3.75;3.12;;;25.00;74.70;;;;;;1846843;78;21014;-70
2022/07/25 04:46:44;;;;;;;3.87;3.20;;;25.10;74.10;;;;;;1846803;78;21490;-70
2022/07/25 04:49:13;;;;;;;4.30;3.15;;;25.10;74.00;;;;;;1846788;78;21086;-69
2022/07/25 04:51:42;;;;;;;6.00;3.20;;;25.20;74.00;;;;;;1846797;78;21010;-70
2022/07/25 04:54:11;;;;;;;4.90;3.27;;;25.30;73.90;;;;;;1847257;77;21145;-70
2022/07/25 04:56:40;;;;;;;4.22;3.00;;;25.40;73.40;;;;;;1849927;77;21020;-70
2022/07/25 04:59:09;;;;;;;7.87;3.30;;;25.50;72.30;;;;;;1849715;77;20988;-71
2022/07/25 05:01:37;;;;;;;7.58;3.70;;;25.50;72.30;;;;;;1849743;77;20992;-72
2022/07/25 05:04:06;;;;;;;4.97;2.87;;;25.60;72.20;;;;;;1849715;77;21012;-72
2022/07/25 05:06:35;;;;;;;3.58;3.17;;;25.70;72.00;;;;;;1849620;77;21007;-72
2022/07/25 05:09:04;;;;;;;4.05;3.35;;;25.70;71.60;;;;;;1849685;77;21453;-72
2022/07/25 05:11:33;;;;;;;4.05;3.35;;;25.80;71.40;;;;;;1849622;77;21024;-71
2022/07/25 05:14:02;;;;;;;3.47;2.90;;;25.90;71.30;;;;;;1849709;77;21056;-71
2022/07/25 05:16:31;;;;;;;3.52;3.22;;;26.00;71.00;;;;;;1849715;77;21000;-71
2022/07/25 05:19:00;;;;;;;3.45;3.15;;;26.10;70.90;;;;;;1849684;77;21020;-71
2022/07/25 05:21:29;;;;;;;4.58;3.40;;;26.20;70.80;;;;;;1849628;77;21024;-71
2022/07/25 05:23:58;;;;;;;5.45;3.65;;;26.20;70.50;;;;;;1849802;77;21044;-71
2022/07/25 05:26:27;;;;;;;3.75;3.30;;;26.30;70.50;;;;;;1849766;77;21000;-71
2022/07/25 05:28:57;;;;;;;9.68;3.45;;;26.40;70.50;;;;;;1849685;77;21079;-72
2022/07/25 05:31:26;;;;;;;3.50;3.20;;;26.50;70.40;;;;;;1849660;77;21466;-71
2022/07/25 05:33:55;;;;;;;3.33;3.00;;;26.60;69.80;;;;;;1849811;77;21012;-71
2022/07/25 05:36:24;;;;;;;3.67;3.30;;;26.60;69.50;;;;;;1849850;77;21012;-71
2022/07/25 05:38:53;;;;;;;6.22;4.35;;;26.70;69.40;;;;;;1849891;77;21528;-71
2022/07/25 05:41:22;;;;;;;8.33;4.95;;;26.70;69.30;;;;;;1849870;77;21073;-72
2022/07/25 05:43:51;;;;;;;4.72;3.15;;;26.80;69.10;;;;;;1849748;77;20996;-72
2022/07/25 05:46:20;;;;;;;6.12;3.15;;;26.80;68.80;;;;;;1849841;77;21032;-71
2022/07/25 05:48:49;;;;;;;5.33;3.22;;;26.90;68.60;;;;;;1849646;77;21055;-71
2022/07/25 05:51:18;;;;;;;4.95;3.62;;;27.00;68.60;;;;;;1849640;77;21078;-72
2022/07/25 05:53:47;;;;;;;5.78;3.37;;;27.00;68.20;;;;;;1849710;77;21015;-72
2022/07/25 05:56:16;;;;;;;9.83;3.65;;;27.10;68.90;;;;;;1840776;77;21075;-71
2022/07/25 05:58:45;;;;;;;6.50;2.80;;;27.10;67.90;;;;;;1838325;78;20958;-72
2022/07/25 06:01:16;;;;;;;6.65;3.72;;;27.10;67.80;;;;;;1838455;78;21494;-71
2022/07/25 06:03:45;;;;;;;3.72;3.35;;;27.20;67.90;;;;;;1838327;78;21039;-71
2022/07/25 06:06:15;;;;;;;4.90;3.30;;;27.20;67.30;;;;;;1838364;78;21001;-71
2022/07/25 06:08:44;;;;;;;4.87;3.40;;;27.20;67.30;;;;;;1838325;78;20986;-71
2022/07/25 06:11:13;;;;;;;6.35;3.42;;;27.20;67.40;;;;;;1838290;78;21047;-72
2022/07/25 06:13:42;;;;;;;12.80;4.28;;;27.30;67.50;;;;;;1838410;78;21424;-71
2022/07/25 06:16:11;;;;;;;4.50;3.10;;;27.40;67.40;;;;;;1838352;78;20989;-72
2022/07/25 06:18:40;;;;;;;6.08;3.62;;;27.50;67.10;;;;;;1838367;78;21405;-72
2022/07/25 06:21:09;;;;;;;11.18;3.25;;;27.40;67.00;;;;;;1838404;78;20962;-71
2022/07/25 06:23:38;;;;;;;4.33;3.20;;;27.50;67.20;;;;;;1838345;78;20985;-71
2022/07/25 06:26:09;;;;;;;4.92;3.12;;;27.50;67.40;;;;;;1838515;78;21411;-71
2022/07/25 06:28:38;;;;;;;8.25;3.30;;;27.50;67.40;;;;;;1838243;78;20986;-71
2022/07/25 06:31:07;;;;;;;4.67;3.47;;;27.60;67.60;;;;;;1838260;78;21017;-70
2022/07/25 06:33:36;;;;;;;3.40;3.10;;;27.60;67.50;;;;;;1837745;78;21030;-70
2022/07/25 06:36:06;;;;;;;4.58;2.92;;;27.60;67.40;;;;;;1838268;78;20981;-71
2022/07/25 06:38:35;;;;;;;4.65;3.60;;;27.70;67.60;;;;;;1827270;78;21027;-71
2022/07/25 06:41:04;;;;;;;4.05;3.55;;;27.70;67.30;;;;;;1816978;78;21075;-71
2022/07/25 06:43:33;;;;;;;3.55;3.20;;;27.80;67.10;;;;;;1823968;78;21047;-71
2022/07/25 06:46:02;;;;;;;7.85;3.30;;;27.90;67.30;;;;;;1828304;78;21020;-71
2022/07/25 06:48:31;;;;;;;3.70;3.40;;;27.90;67.30;;;;;;1837943;78;21028;-72
2022/07/25 06:51:00;;;;;;;3.50;3.20;;;28.00;67.30;;;;;;1837786;78;21025;-71
2022/07/25 06:53:29;;;;;;;4.75;3.40;;;28.10;66.90;;;;;;1837963;78;21032;-69
2022/07/25 06:55:58;;;;;;;6.78;3.90;;;28.20;66.40;;;;;;1847142;77;21028;-70
2022/07/25 06:58:27;;;;;;;4.17;3.33;;;28.20;65.80;;;;;;1862164;77;20992;-71
2022/07/25 07:00:56;;;;;;;6.92;3.60;;;28.20;65.70;;;;;;1862062;76;21055;-72
2022/07/25 07:03:25;;;;;;;10.05;4.10;;;28.30;65.60;;;;;;1862104;77;21371;-72
2022/07/25 07:05:54;;;;;;;5.95;3.75;;;28.40;65.50;;;;;;1861997;77;20996;-73
2022/07/25 07:08:23;;;;;;;4.50;3.50;;;28.40;65.30;;;;;;1862070;76;20976;-72
2022/07/25 07:10:52;;;;;;;6.37;3.55;;;28.50;65.30;;;;;;1862000;76;20945;-72
2022/07/25 07:13:22;;;;;;;3.60;3.20;;;28.60;65.10;;;;;;1862004;77;21459;-72
2022/07/25 07:15:51;;;;;;;8.75;4.00;;;28.60;64.80;;;;;;1862022;77;20957;-72
2022/07/25 07:18:21;;;;;;;4.67;3.20;;;28.70;64.70;;;;;;1840515;77;21439;-73
2022/07/25 07:20:51;;;;;;;4.58;3.83;;;28.80;64.30;;;;;;1823744;79;21121;-73
2022/07/25 07:23:20;;;;;;;3.60;3.30;;;28.80;64.20;;;;;;1823972;79;21107;-73
2022/07/25 07:25:49;;;;;;;4.80;3.22;;;28.80;64.00;;;;;;1824657;79;21015;-73
2022/07/25 07:28:18;;;;;;;4.83;3.40;;;28.90;63.80;;;;;;1824907;79;21019;-73
2022/07/25 07:30:47;;;;;;;7.15;4.08;;;28.90;63.60;;;;;;1824987;79;21106;-73
2022/07/25 07:33:15;;;;;;;6.72;3.90;;;28.90;63.70;;;;;;1824993;78;21027;-73
2022/07/25 07:35:45;;;;;;;4.92;3.45;;;29.00;63.60;;;;;;1824987;78;21032;-73
2022/07/25 07:38:13;;;;;;;4.70;3.20;;;28.90;63.50;;;;;;1824970;79;20995;-73
2022/07/25 07:40:42;;;;;;;3.40;3.10;;;29.00;63.60;;;;;;1824883;77;21094;-73
2022/07/25 07:43:11;;;;;;;4.15;3.67;;;29.10;63.30;;;;;;1824887;79;21020;-73
2022/07/25 07:45:41;;;;;;;7.58;3.70;;;29.10;62.30;;;;;;1824941;77;21033;-73
2022/07/25 07:48:11;;;;;;;3.92;3.20;;;29.10;62.10;;;;;;1824903;79;21090;-73
2022/07/25 07:50:40;;;;;;;3.87;3.30;;;29.20;61.50;;;;;;1824841;77;21572;-73
2022/07/25 07:53:09;;;;;;;3.87;3.58;;;29.20;61.60;;;;;;1824843;79;21028;-73
2022/07/25 07:55:45;;;;;;;4.83;3.87;;;29.20;61.40;;;;;;1824802;77;21063;-70
2022/07/25 07:58:15;;;;;;;4.15;3.62;;;29.20;61.20;;;;;;1824820;79;21486;-73
2022/07/25 08:00:46;;;;;;;4.40;3.58;;;29.20;61.50;;;;;;1824869;79;21007;-73
2022/07/25 08:03:20;;;;;;;5.90;3.80;;;29.30;60.80;;;;;;1824790;79;21024;-73
2022/07/25 08:05:50;;;;;;;4.43;3.80;;;29.20;60.80;;;;;;1825073;79;21081;-74
2022/07/25 08:08:19;;;;;;;7.03;5.55;;;29.20;61.50;;;;;;1824859;79;21130;-73
2022/07/25 08:10:49;;;;;;;3.85;3.55;;;29.30;61.90;;;;;;1824819;79;21019;-73
2022/07/25 08:13:20;;;;;;;4.53;3.90;;;29.40;62.00;;;;;;1824827;79;21090;-73
2022/07/25 08:15:51;;;;;;;5.85;3.85;;;29.40;62.00;;;;;;1824868;79;21448;-74
2022/07/25 08:18:20;;;;;;;5.30;3.42;;;29.40;62.20;;;;;;1824908;79;21447;-73
2022/07/25 08:20:50;;;;;;;10.68;3.58;;;29.40;61.70;;;;;;1824945;79;21028;-73
2022/07/25 08:23:21;;;;;;;5.90;3.90;;;29.50;61.20;;;;;;1824874;79;21149;-74
2022/07/25 08:25:50;;;;;;;4.15;3.45;;;29.50;61.00;;;;;;1824863;79;20992;-74
2022/07/25 08:28:19;;;;;;;4.83;4.33;;;29.60;61.00;;;;;;1824896;79;21067;-72
2022/07/25 08:30:49;;;;;;;7.42;3.55;;;29.60;61.10;;;;;;1824851;79;21086;-74
2022/07/25 08:33:18;;;;;;;5.12;3.65;;;29.70;61.10;;;;;;1824871;79;21498;-74
2022/07/25 08:35:50;;;;;;;6.55;3.85;;;29.70;60.90;;;;;;1824922;78;21027;-73
2022/07/25 08:38:19;;;;;;;6.47;4.85;;;29.70;60.20;;;;;;1824908;79;20996;-73
2022/07/25 08:40:49;;;;;;;5.40;4.37;;;29.80;59.80;;;;;;1824806;79;21101;-74
2022/07/25 08:43:18;;;;;;;3.55;3.25;;;29.80;59.40;;;;;;1824749;79;21023;-74
2022/07/25 08:45:53;;;;;;;5.37;3.92;;;29.80;59.60;;;;;;1824928;77;20991;-74
2022/07/25 08:48:22;;;;;;;;;;;29.90;59.80;;;;;;1827496;79;21039;-74
2022/07/25 08:50:51;;;;;;;6.90;3.47;;;30.00;59.50;;;;;;1824899;79;20351;-74
2022/07/25 08:53:22;;;;;;;3.70;3.40;;;30.10;59.60;;;;;;1824894;77;21078;-74
2022/07/25 08:55:51;;;;;;;5.08;4.42;;;30.10;59.30;;;;;;1824884;79;21027;-74
2022/07/25 08:58:20;;;;;;;8.78;4.72;;;30.10;59.50;;;;;;1812446;79;21064;-74
2022/07/25 09:00:49;;;;;;;5.83;3.50;;;30.10;59.30;;;;;;1810147;78;21040;-73
